Time;durP1;ratioP1;P1;durP2;ratioP2;P2;SDS_P1;SDS_P2;PMS_P1;PMS_P2;Temp;Humidity;BMP_temperature;BMP_pressure;BME280_temperature;BME280_humidity;BME280_pressure;Samples;Min_cycle;Max_cycle;Signal;HPM_P1;HPM_P2
2023/10/19 00:01:11;;;;;;;3.90;3.60;;;19.00;55.50;;;;;;4992993;23;20502;-75
2023/10/19 00:03:38;;;;;;;3.90;3.60;;;19.00;55.50;;;;;;4958720;28;20446;-76
2023/10/19 00:06:06;;;;;;;3.50;3.30;;;18.90;55.40;;;;;;4962602;28;20454;-75
2023/10/19 00:08:40;;;;;;;3.50;3.30;;;18.90;55.40;;;;;;4972078;28;20511;-78
2023/10/19 00:11:09;;;;;;;4.40;4.00;;;18.90;55.60;;;;;;4955555;28;20467;-75
2023/10/19 00:13:37;;;;;;;7.43;3.83;;;18.90;55.40;;;;;;4958695;28;20477;-76
2023/10/19 00:16:11;;;;;;;3.97;3.67;;;18.90;55.70;;;;;;4968403;28;20453;-76
2023/10/19 00:18:42;;;;;;;4.60;3.77;;;18.90;55.50;;;;;;4980164;28;20434;-76
2023/10/19 00:21:19;;;;;;;3.87;3.57;;;18.90;55.70;;;;;;4954893;28;20493;-77
2023/10/19 00:23:49;;;;;;;4.10;3.80;;;18.90;55.60;;;;;;4957742;28;20489;-77
2023/10/19 00:26:19;;;;;;;3.97;3.63;;;18.80;55.60;;;;;;4960781;28;20519;-76
2023/10/19 00:28:49;;;;;;;4.27;3.87;;;18.80;55.60;;;;;;4966957;28;20457;-76
2023/10/19 00:31:20;;;;;;;4.13;3.83;;;18.80;55.70;;;;;;4978754;28;20454;-76
2023/10/19 00:33:51;;;;;;;3.60;3.30;;;18.80;55.90;;;;;;4969846;28;20450;-76
2023/10/19 00:36:21;;;;;;;4.20;3.90;;;18.80;55.90;;;;;;4978980;28;20454;-76
2023/10/19 00:38:52;;;;;;;3.80;3.50;;;18.80;55.90;;;;;;4958547;28;20456;-76
2023/10/19 00:41:24;;;;;;;4.13;3.83;;;18.80;56.00;;;;;;4971154;28;20493;-76
2023/10/19 00:43:57;;;;;;;5.13;4.17;;;18.80;55.90;;;;;;4963427;28;20439;-77
2023/10/19 00:46:32;;;;;;;4.17;3.77;;;18.70;55.80;;;;;;4965152;28;20434;-76
2023/10/19 00:49:05;;;;;;;4.00;3.70;;;18.70;55.90;;;;;;4969994;28;20453;-76
2023/10/19 00:51:50;;;;;;;4.30;4.00;;;18.70;56.00;;;;;;4975437;28;20454;-77
2023/10/19 00:54:26;;;;;;;3.83;3.53;;;18.70;56.00;;;;;;4965110;28;20437;-77
2023/10/19 00:56:56;;;;;;;8.53;3.60;;;18.70;55.90;;;;;;4972956;28;20548;-77
2023/10/19 00:59:24;;;;;;;4.30;3.90;;;18.70;55.90;;;;;;4972622;28;21013;-77
2023/10/19 01:01:57;;;;;;;4.30;3.90;;;18.70;55.90;;;;;;4972100;28;20489;-75
2023/10/19 01:04:32;;;;;;;4.43;4.13;;;18.60;56.10;;;;;;4972720;28;20457;-78
2023/10/19 01:07:05;;;;;;;4.30;3.90;;;18.60;56.10;;;;;;4963413;28;20442;-77
2023/10/19 01:09:36;;;;;;;4.60;3.70;;;18.60;56.10;;;;;;4956560;28;20439;-77
2023/10/19 01:12:21;;;;;;;3.90;3.60;;;18.60;56.20;;;;;;4964970;28;20442;-78
2023/10/19 01:15:05;;;;;;;4.97;4.30;;;18.60;56.20;;;;;;4968015;28;20465;-77
2023/10/19 01:17:34;;;;;;;4.13;3.73;;;18.60;56.10;;;;;;4972115;28;20455;-77
2023/10/19 01:20:12;;;;;;;3.90;3.60;;;18.50;56.20;;;;;;4975571;28;21051;-78
2023/10/19 01:22:54;;;;;;;4.97;4.27;;;18.50;56.10;;;;;;4956432;29;20879;-77
2023/10/19 01:25:34;;;;;;;4.73;3.70;;;18.50;56.20;;;;;;4956502;29;20526;-78
2023/10/19 01:28:07;;;;;;;5.60;3.50;;;18.50;56.20;;;;;;4956523;29;20439;-78
2023/10/19 01:30:36;;;;;;;4.33;3.97;;;18.50;56.10;;;;;;4971301;28;20985;-77
2023/10/19 01:33:08;;;;;;;4.30;4.00;;;18.50;56.20;;;;;;4972289;28;20517;-78
2023/10/19 01:38:19;;;;;;;4.53;4.20;;;18.50;56.40;;;;;;4983208;28;20446;-77
2023/10/19 01:40:48;;;;;;;4.07;3.50;;;18.50;56.30;;;;;;4976167;28;20512;-78
2023/10/19 01:43:21;;;;;;;4.90;4.50;;;18.50;56.50;;;;;;4975819;28;20573;-77
2023/10/19 01:45:54;;;;;;;4.80;4.27;;;18.50;56.30;;;;;;4962276;28;20527;-78
2023/10/19 01:48:27;;;;;;;4.57;4.17;;;18.40;56.40;;;;;;4972120;28;20497;-77
2023/10/19 01:50:56;;;;;;;4.27;3.93;;;18.40;56.40;;;;;;4970005;28;20498;-77
2023/10/19 01:53:25;;;;;;;4.03;3.73;;;18.40;56.40;;;;;;4978180;28;20495;-78
2023/10/19 01:55:58;;;;;;;4.20;3.80;;;18.40;56.50;;;;;;5003469;28;20916;-78
2023/10/19 01:58:26;;;;;;;4.53;4.13;;;18.40;56.30;;;;;;5002506;28;20456;-77
2023/10/19 02:00:59;;;;;;;4.40;4.00;;;18.40;56.40;;;;;;5003376;28;20483;-78
2023/10/19 02:03:28;;;;;;;4.63;4.23;;;18.40;56.40;;;;;;4998439;28;20594;-77
2023/10/19 02:06:00;;;;;;;5.30;4.60;;;18.40;56.60;;;;;;4987637;28;20555;-77
2023/10/19 02:08:29;;;;;;;4.60;4.30;;;18.40;56.50;;;;;;4983556;28;20478;-77
2023/10/19 02:10:57;;;;;;;7.47;4.70;;;18.40;56.60;;;;;;4981398;28;20498;-77
2023/10/19 02:13:24;;;;;;;4.70;4.30;;;18.30;56.50;;;;;;4980517;28;20489;-78
2023/10/19 02:15:52;;;;;;;4.30;3.77;;;18.40;56.70;;;;;;4980105;28;20439;-77
2023/10/19 02:18:21;;;;;;;4.77;4.27;;;18.40;56.60;;;;;;4977265;28;20478;-76
2023/10/19 02:20:52;;;;;;;4.57;4.13;;;18.40;56.60;;;;;;4984304;28;20474;-76
2023/10/19 02:23:20;;;;;;;4.40;4.00;;;18.30;56.60;;;;;;4993627;28;20461;-77
2023/10/19 02:25:49;;;;;;;5.03;4.53;;;18.30;56.50;;;;;;4995755;28;20520;-77
2023/10/19 02:28:17;;;;;;;5.30;4.80;;;18.30;56.60;;;;;;4994931;28;20433;-76
2023/10/19 02:30:45;;;;;;;4.40;4.00;;;18.30;56.60;;;;;;4994151;28;20449;-76
2023/10/19 02:33:13;;;;;;;4.53;4.10;;;18.30;56.50;;;;;;4994760;28;20437;-76
2023/10/19 02:35:40;;;;;;;4.07;3.77;;;18.20;56.60;;;;;;4991721;28;20448;-75
2023/10/19 02:38:08;;;;;;;4.70;4.30;;;18.20;56.60;;;;;;4983358;28;20441;-76
2023/10/19 02:40:46;;;;;;;4.60;4.20;;;18.20;56.80;;;;;;4955891;29;20482;-76
2023/10/19 02:43:20;;;;;;;4.90;4.50;;;18.20;56.70;;;;;;4956644;28;20455;-76
2023/10/19 02:45:48;;;;;;;4.20;3.80;;;18.20;56.70;;;;;;4957009;28;20514;-77
2023/10/19 02:48:16;;;;;;;6.50;4.07;;;18.20;56.80;;;;;;4956793;29;20439;-76
2023/10/19 02:50:44;;;;;;;5.13;4.63;;;18.20;56.70;;;;;;4956820;28;20558;-76
2023/10/19 02:53:13;;;;;;;4.87;4.13;;;18.20;56.80;;;;;;4992167;28;20441;-76
2023/10/19 02:55:42;;;;;;;4.50;4.10;;;18.20;56.70;;;;;;4975365;28;20457;-76
2023/10/19 02:58:13;;;;;;;5.10;4.60;;;18.20;56.70;;;;;;4974644;28;20446;-77
2023/10/19 03:00:45;;;;;;;4.50;4.10;;;18.20;57.00;;;;;;4972579;28;20552;-76
2023/10/19 03:03:17;;;;;;;3.90;3.60;;;18.20;56.80;;;;;;4969269;28;20531;-76
2023/10/19 03:05:46;;;;;;;4.97;4.10;;;18.20;56.80;;;;;;4974408;28;20528;-76
2023/10/19 03:08:15;;;;;;;4.87;4.47;;;18.20;56.90;;;;;;4973979;28;20565;-76
2023/10/19 03:10:44;;;;;;;4.43;4.03;;;18.20;56.90;;;;;;4982718;28;20462;-76
2023/10/19 03:13:15;;;;;;;4.53;4.13;;;18.20;57.00;;;;;;4965608;28;20938;-75
2023/10/19 03:15:45;;;;;;;4.60;4.20;;;18.20;56.90;;;;;;4973437;28;20446;-76
2023/10/19 03:18:13;;;;;;;4.23;3.83;;;18.20;56.90;;;;;;4957847;28;20434;-76
2023/10/19 03:20:41;;;;;;;8.53;3.90;;;18.10;57.00;;;;;;4981696;28;20573;-76
2023/10/19 03:23:10;;;;;;;4.87;4.37;;;18.10;57.00;;;;;;4990212;28;20476;-77
2023/10/19 03:26:22;;;;;;;4.70;4.30;;;18.10;57.00;;;;;;4993697;28;20917;-76
2023/10/19 03:28:45;;;;;;;6.47;4.90;;;18.10;57.00;;;;;;4993679;28;20449;-77
2023/10/19 03:31:18;;;;;;;5.17;4.77;;;18.10;57.00;;;;;;4992815;28;20465;-76
2023/10/19 03:33:53;;;;;;;5.20;4.50;;;18.10;57.10;;;;;;4993448;28;20471;-76
2023/10/19 03:36:23;;;;;;;5.40;4.53;;;18.10;57.10;;;;;;4986236;28;20460;-76
2023/10/19 03:38:53;;;;;;;4.97;4.40;;;18.10;57.00;;;;;;4986175;28;20484;-76
2023/10/19 03:41:24;;;;;;;5.87;4.20;;;18.10;57.20;;;;;;4992730;28;20556;-76
2023/10/19 03:43:54;;;;;;;4.93;4.43;;;18.10;57.10;;;;;;4992941;28;20516;-76
2023/10/19 03:46:28;;;;;;;4.60;4.20;;;18.10;57.20;;;;;;4993258;28;20477;-77
2023/10/19 03:49:03;;;;;;;4.47;4.17;;;18.10;57.20;;;;;;4992635;28;20459;-76
2023/10/19 03:51:39;;;;;;;4.67;4.27;;;18.10;57.10;;;;;;5001112;28;20448;-75
2023/10/19 03:54:21;;;;;;;4.93;4.33;;;18.10;57.20;;;;;;4994094;28;20457;-73
2023/10/19 03:56:50;;;;;;;4.00;3.70;;;18.10;57.30;;;;;;4989325;28;20437;-76
2023/10/19 03:59:19;;;;;;;4.10;3.80;;;18.10;57.40;;;;;;5000107;28;20476;-75
2023/10/19 04:01:48;;;;;;;4.80;4.40;;;18.10;57.40;;;;;;4995992;28;20488;-75
2023/10/19 04:04:17;;;;;;;4.73;4.33;;;18.10;57.30;;;;;;4988868;28;20461;-76
2023/10/19 04:06:49;;;;;;;4.67;4.27;;;18.10;57.30;;;;;;4974803;28;20458;-77
2023/10/19 04:09:18;;;;;;;4.57;4.17;;;18.10;57.40;;;;;;4973840;28;20443;-75
2023/10/19 04:11:49;;;;;;;4.67;4.20;;;18.00;57.20;;;;;;4974186;28;20569;-77
2023/10/19 04:14:18;;;;;;;4.57;4.03;;;18.00;57.40;;;;;;4974018;28;20450;-76
2023/10/19 04:16:48;;;;;;;5.00;4.53;;;18.00;57.30;;;;;;4973930;28;20515;-76
2023/10/19 04:19:17;;;;;;;5.13;4.67;;;18.00;57.30;;;;;;4972861;28;20450;-75
2023/10/19 04:21:46;;;;;;;4.80;4.40;;;18.00;57.40;;;;;;4973179;28;20475;-76
2023/10/19 04:24:15;;;;;;;4.93;4.53;;;18.00;57.40;;;;;;4992250;28;20479;-76
2023/10/19 04:26:43;;;;;;;4.27;3.97;;;18.00;57.30;;;;;;4996353;28;20465;-75
2023/10/19 04:29:13;;;;;;;5.93;5.17;;;18.00;58.00;;;;;;4994831;28;20508;-77
2023/10/19 04:31:49;;;;;;;5.20;4.73;;;18.00;57.40;;;;;;4992550;28;20488;-76
2023/10/19 04:34:20;;;;;;;5.77;4.73;;;18.00;57.30;;;;;;4992976;28;20544;-76
2023/10/19 04:36:49;;;;;;;5.10;4.60;;;18.00;57.20;;;;;;4992848;28;20449;-76
2023/10/19 04:39:19;;;;;;;5.37;4.87;;;18.00;57.40;;;;;;4983282;28;20508;-75
2023/10/19 04:41:49;;;;;;;6.20;5.60;;;18.00;57.30;;;;;;4981004;28;20481;-75
2023/10/19 04:44:18;;;;;;;5.33;4.83;;;18.00;57.50;;;;;;4976315;28;20470;-75
2023/10/19 04:46:46;;;;;;;5.97;5.33;;;17.90;57.40;;;;;;4976896;28;20525;-76
2023/10/19 04:49:16;;;;;;;5.80;4.97;;;17.90;57.40;;;;;;4976894;28;20450;-77
2023/10/19 04:51:46;;;;;;;5.47;4.97;;;17.90;57.40;;;;;;4976615;28;20466;-77
2023/10/19 04:54:14;;;;;;;5.63;4.57;;;18.00;57.60;;;;;;4982271;28;20519;-77
2023/10/19 04:56:42;;;;;;;4.90;4.40;;;18.00;57.50;;;;;;4987724;28;20504;-76
2023/10/19 04:59:10;;;;;;;4.90;4.50;;;17.90;57.50;;;;;;4995768;28;20445;-76
2023/10/19 05:01:40;;;;;;;4.77;4.37;;;17.90;57.40;;;;;;4982279;28;20569;-76
2023/10/19 05:04:09;;;;;;;4.70;4.30;;;17.90;57.60;;;;;;4970626;28;20454;-76
2023/10/19 05:06:38;;;;;;;5.60;5.10;;;17.90;57.60;;;;;;4970458;28;20458;-76
2023/10/19 05:09:08;;;;;;;5.33;4.83;;;17.90;57.60;;;;;;4962471;28;20454;-77
2023/10/19 05:11:36;;;;;;;4.80;4.40;;;17.90;57.50;;;;;;4972102;28;20457;-76
2023/10/19 05:14:05;;;;;;;5.20;4.70;;;17.90;57.60;;;;;;4962654;28;20446;-76
2023/10/19 05:16:33;;;;;;;4.97;4.47;;;17.90;57.50;;;;;;4983861;28;20456;-75
2023/10/19 05:19:04;;;;;;;4.73;4.33;;;17.90;57.60;;;;;;4989124;28;20433;-76
2023/10/19 05:21:35;;;;;;;5.13;4.63;;;17.90;57.60;;;;;;4994042;28;20551;-77
2023/10/19 05:24:05;;;;;;;5.30;4.80;;;17.90;57.70;;;;;;4966597;28;20441;-75
2023/10/19 05:26:35;;;;;;;5.33;4.80;;;17.90;57.70;;;;;;4978128;28;20434;-76
2023/10/19 05:29:04;;;;;;;5.80;5.17;;;17.90;57.60;;;;;;4975772;28;20446;-76
2023/10/19 05:31:33;;;;;;;5.83;5.33;;;17.90;57.70;;;;;;4975695;28;20506;-77
2023/10/19 05:34:02;;;;;;;4.80;4.40;;;17.90;57.70;;;;;;4976158;28;20465;-76
2023/10/19 05:36:32;;;;;;;5.97;4.90;;;17.80;57.70;;;;;;4975390;28;20465;-75
2023/10/19 05:39:00;;;;;;;5.20;4.80;;;17.90;57.70;;;;;;4983467;28;20458;-76
2023/10/19 05:41:31;;;;;;;4.93;4.53;;;17.90;57.70;;;;;;4992515;28;20504;-76
2023/10/19 05:44:00;;;;;;;5.50;5.00;;;17.80;57.70;;;;;;4994970;28;20477;-76
2023/10/19 05:46:28;;;;;;;5.10;4.60;;;17.80;57.70;;;;;;4995534;28;20452;-75
2023/10/19 05:48:57;;;;;;;5.27;4.80;;;17.80;57.70;;;;;;4995704;28;20500;-75
2023/10/19 05:51:26;;;;;;;4.90;4.50;;;17.80;57.80;;;;;;4995076;28;20461;-76
2023/10/19 05:54:01;;;;;;;5.47;4.90;;;17.80;57.90;;;;;;4994697;28;20469;-76
2023/10/19 05:56:30;;;;;;;5.20;4.70;;;17.80;57.70;;;;;;4987178;28;21047;-76
2023/10/19 05:59:00;;;;;;;8.23;5.10;;;17.80;57.80;;;;;;4987474;28;20446;-76
2023/10/19 06:01:29;;;;;;;4.47;4.07;;;17.80;57.80;;;;;;4995519;28;20481;-76
2023/10/19 06:03:57;;;;;;;5.47;4.97;;;17.80;57.80;;;;;;4994533;28;20485;-76
2023/10/19 06:06:25;;;;;;;5.37;4.90;;;17.80;57.80;;;;;;4988344;28;20463;-76
2023/10/19 06:08:54;;;;;;;5.40;4.90;;;17.80;57.80;;;;;;4986452;28;20445;-76
2023/10/19 06:11:23;;;;;;;4.43;4.03;;;17.80;57.80;;;;;;4994505;28;20504;-76
2023/10/19 06:13:52;;;;;;;4.97;4.57;;;17.80;57.80;;;;;;4994512;28;20445;-76
2023/10/19 06:16:21;;;;;;;4.90;4.50;;;17.80;57.80;;;;;;4995508;28;20441;-76
2023/10/19 06:18:50;;;;;;;4.37;4.07;;;17.80;57.80;;;;;;4994757;28;20441;-76
2023/10/19 06:21:20;;;;;;;4.80;4.40;;;17.80;57.90;;;;;;4994521;28;20480;-77
2023/10/19 06:23:48;;;;;;;6.20;4.90;;;17.80;57.90;;;;;;4974920;28;20469;-76
2023/10/19 06:26:16;;;;;;;5.30;4.80;;;17.80;57.90;;;;;;4974526;28;20477;-76
2023/10/19 06:28:44;;;;;;;4.97;4.47;;;17.80;57.90;;;;;;4974355;28;20454;-76
2023/10/19 06:31:14;;;;;;;5.67;5.17;;;17.70;57.80;;;;;;4974331;28;20470;-77
2023/10/19 06:33:44;;;;;;;5.80;5.20;;;17.70;57.80;;;;;;4974430;28;20477;-76
2023/10/19 06:36:12;;;;;;;5.93;5.33;;;17.70;58.00;;;;;;4974328;28;20509;-76
2023/10/19 06:38:40;;;;;;;5.33;4.83;;;17.80;58.00;;;;;;4981489;28;20477;-76
2023/10/19 06:41:12;;;;;;;5.70;5.20;;;17.80;58.00;;;;;;4987502;28;20492;-76
2023/10/19 06:43:41;;;;;;;5.70;5.20;;;17.70;57.90;;;;;;4993672;28;20484;-76
2023/10/19 06:46:11;;;;;;;5.47;4.97;;;17.70;58.00;;;;;;4993476;28;20455;-76
2023/10/19 06:48:40;;;;;;;6.50;5.90;;;17.70;58.00;;;;;;4993851;28;20453;-77
2023/10/19 06:51:09;;;;;;;6.00;5.40;;;17.70;57.90;;;;;;4993994;28;20493;-77
2023/10/19 06:53:38;;;;;;;6.60;5.50;;;17.70;58.00;;;;;;4994590;28;20426;-78
2023/10/19 06:56:06;;;;;;;10.23;6.77;;;17.70;58.10;;;;;;4989331;28;20520;-78
2023/10/19 06:58:36;;;;;;;7.10;6.30;;;17.70;58.10;;;;;;4988744;28;20475;-78
2023/10/19 07:01:08;;;;;;;7.77;6.30;;;17.70;58.00;;;;;;5000270;28;20473;-77
2023/10/19 07:03:37;;;;;;;7.37;6.20;;;17.70;58.00;;;;;;4997778;28;20481;-77
2023/10/19 07:06:07;;;;;;;7.03;6.23;;;17.70;58.00;;;;;;4996527;28;20445;-77
2023/10/19 07:08:41;;;;;;;8.53;6.70;;;17.70;58.00;;;;;;4988134;28;20468;-78
2023/10/19 07:11:10;;;;;;;7.80;6.60;;;17.70;58.00;;;;;;4987695;28;20541;-76
2023/10/19 07:13:39;;;;;;;7.27;6.50;;;17.70;58.00;;;;;;4994111;28;20441;-76
2023/10/19 07:16:12;;;;;;;8.30;6.93;;;17.70;58.10;;;;;;4994191;28;20452;-76
2023/10/19 07:18:41;;;;;;;8.00;5.97;;;17.70;58.00;;;;;;4995259;28;20448;-77
2023/10/19 07:21:09;;;;;;;8.27;6.67;;;17.80;58.20;;;;;;4997222;28;20504;-77
2023/10/19 07:23:40;;;;;;;6.87;6.07;;;17.70;58.00;;;;;;4988939;28;20516;-77
2023/10/19 07:26:10;;;;;;;7.17;6.17;;;17.80;58.10;;;;;;4987823;28;20429;-77
2023/10/19 07:28:39;;;;;;;7.40;5.90;;;17.80;58.00;;;;;;4997231;28;20453;-77
2023/10/19 07:31:12;;;;;;;7.47;6.27;;;17.80;58.10;;;;;;5001348;28;20473;-77
2023/10/19 07:33:45;;;;;;;9.80;6.60;;;17.80;58.20;;;;;;5000167;28;20413;-76
2023/10/19 07:36:15;;;;;;;6.40;5.80;;;17.80;58.20;;;;;;4999754;28;20445;-77
2023/10/19 07:38:45;;;;;;;7.10;6.40;;;17.80;58.00;;;;;;4998073;28;20437;-78
2023/10/19 07:41:15;;;;;;;7.20;6.03;;;17.80;57.90;;;;;;4992543;28;20485;-78
2023/10/19 07:43:43;;;;;;;6.47;5.80;;;17.90;58.00;;;;;;4998349;28;20477;-78
2023/10/19 07:46:12;;;;;;;8.07;6.93;;;17.90;58.00;;;;;;4998308;28;20445;-78
2023/10/19 07:48:43;;;;;;;7.33;6.40;;;17.80;57.90;;;;;;5002530;28;20449;-78
2023/10/19 07:51:12;;;;;;;7.27;6.23;;;17.90;58.00;;;;;;4999574;28;20481;-78
2023/10/19 07:53:40;;;;;;;6.70;5.83;;;17.90;58.00;;;;;;4995430;28;20472;-78
2023/10/19 07:56:09;;;;;;;7.00;5.93;;;17.90;57.90;;;;;;5002610;28;20496;-78
2023/10/19 07:58:41;;;;;;;7.20;6.20;;;17.90;57.70;;;;;;5001995;28;20474;-78
2023/10/19 08:01:11;;;;;;;7.00;6.30;;;17.90;57.90;;;;;;4991282;28;20485;-78
2023/10/19 08:03:40;;;;;;;6.00;5.40;;;17.90;57.80;;;;;;4976250;28;20545;-78
2023/10/19 08:06:09;;;;;;;5.93;5.33;;;17.90;57.80;;;;;;4965378;28;20447;-79
2023/10/19 08:08:37;;;;;;;8.63;5.80;;;18.00;57.90;;;;;;4973182;28;20481;-78
2023/10/19 08:11:05;;;;;;;6.40;5.80;;;18.00;57.90;;;;;;4974631;28;20565;-79
2023/10/19 08:13:34;;;;;;;6.20;5.50;;;18.00;57.90;;;;;;4970810;28;20443;-78
2023/10/19 08:16:04;;;;;;;8.90;5.80;;;18.00;58.00;;;;;;4974494;28;20459;-79
2023/10/19 08:18:32;;;;;;;6.30;5.70;;;18.00;57.90;;;;;;4961115;28;20533;-80
2023/10/19 08:21:01;;;;;;;6.97;5.57;;;17.90;57.90;;;;;;4966700;28;20470;-76
2023/10/19 08:23:31;;;;;;;5.93;4.77;;;17.90;58.00;;;;;;4961096;28;20502;-75
2023/10/19 08:25:59;;;;;;;5.00;4.60;;;17.60;57.60;;;;;;4966761;28;20474;-75
2023/10/19 08:28:28;;;;;;;4.63;4.33;;;16.90;58.50;;;;;;4971747;28;20489;-75
2023/10/19 08:31:00;;;;;;;4.60;4.20;;;16.40;59.10;;;;;;4961083;28;20477;-75
2023/10/19 08:33:33;;;;;;;4.60;4.20;;;16.10;59.60;;;;;;4953480;28;20455;-74
2023/10/19 08:36:02;;;;;;;7.03;4.80;;;15.80;60.50;;;;;;4961107;28;20455;-74
2023/10/19 08:38:30;;;;;;;4.70;4.27;;;15.70;61.00;;;;;;4967481;28;20489;-75
2023/10/19 08:40:59;;;;;;;5.00;4.60;;;15.70;62.00;;;;;;4971049;28;20505;-75
2023/10/19 08:43:28;;;;;;;5.27;4.77;;;15.60;62.30;;;;;;4980684;28;20509;-76
2023/10/19 08:45:56;;;;;;;6.97;4.13;;;15.50;62.80;;;;;;4964253;28;20451;-76
2023/10/19 08:48:25;;;;;;;4.57;4.20;;;15.50;62.60;;;;;;4967480;28;20451;-76
2023/10/19 08:50:55;;;;;;;4.60;4.20;;;15.50;63.40;;;;;;4960920;28;20508;-77
2023/10/19 08:53:24;;;;;;;3.77;3.47;;;16.10;65.70;;;;;;4963159;28;20463;-77
2023/10/19 08:55:54;;;;;;;3.53;3.20;;;16.50;64.40;;;;;;4972213;28;20450;-76
2023/10/19 08:58:23;;;;;;;3.43;3.23;;;16.80;63.30;;;;;;4973408;28;20481;-76
2023/10/19 09:00:53;;;;;;;4.27;3.87;;;17.00;62.40;;;;;;4963681;28;20483;-76
2023/10/19 09:03:24;;;;;;;3.33;3.10;;;17.20;61.70;;;;;;4958714;28;20570;-77
2023/10/19 09:05:56;;;;;;;4.00;3.60;;;17.30;61.20;;;;;;4972814;28;20477;-76
2023/10/19 09:08:24;;;;;;;3.60;3.30;;;17.40;61.00;;;;;;4971694;28;20458;-77
2023/10/19 09:10:53;;;;;;;6.07;3.53;;;17.50;60.70;;;;;;4973396;28;20462;-76
2023/10/19 09:13:23;;;;;;;3.00;2.80;;;17.50;60.50;;;;;;4974082;28;20450;-76
2023/10/19 09:15:55;;;;;;;4.77;3.10;;;17.60;60.50;;;;;;4961487;28;20434;-77
2023/10/19 09:18:24;;;;;;;3.20;3.00;;;17.60;60.20;;;;;;4972235;28;20491;-76
2023/10/19 09:21:01;;;;;;;3.50;3.20;;;17.70;60.20;;;;;;4971759;28;20462;-76
2023/10/19 09:23:32;;;;;;;3.07;2.87;;;17.70;60.20;;;;;;4963902;28;20469;-76
2023/10/19 09:26:02;;;;;;;6.67;3.07;;;17.70;59.90;;;;;;4964763;28;20517;-76
2023/10/19 09:28:33;;;;;;;3.10;2.80;;;17.70;59.90;;;;;;4967606;28;20450;-77
2023/10/19 09:31:01;;;;;;;4.00;3.00;;;17.80;59.90;;;;;;4966844;28;20490;-77
2023/10/19 09:33:30;;;;;;;2.93;2.73;;;17.80;59.80;;;;;;4976273;28;20454;-77
2023/10/19 09:36:00;;;;;;;3.63;3.33;;;17.80;59.70;;;;;;4975336;28;20452;-77
2023/10/19 09:38:28;;;;;;;4.17;2.77;;;17.80;59.70;;;;;;4970589;28;20454;-77
2023/10/19 09:41:00;;;;;;;3.10;2.90;;;17.80;59.80;;;;;;4975354;28;21804;-77
2023/10/19 09:43:34;;;;;;;2.60;2.50;;;17.90;59.80;;;;;;4962503;28;20460;-77
2023/10/19 09:46:07;;;;;;;3.67;3.27;;;17.80;59.70;;;;;;4971095;28;20484;-77
2023/10/19 09:48:41;;;;;;;2.83;2.63;;;17.80;59.80;;;;;;4980618;28;20446;-78
2023/10/19 09:51:10;;;;;;;2.53;2.30;;;17.80;59.80;;;;;;4972979;28;20465;-77
2023/10/19 09:53:42;;;;;;;3.03;2.80;;;17.90;59.80;;;;;;4971850;28;20450;-77
2023/10/19 09:56:14;;;;;;;2.53;2.43;;;17.90;59.80;;;;;;4967750;28;20459;-77
2023/10/19 09:58:45;;;;;;;2.83;2.63;;;17.90;59.80;;;;;;4975876;28;20446;-77
2023/10/19 10:01:13;;;;;;;2.80;2.30;;;17.90;59.80;;;;;;4972450;28;20462;-77
2023/10/19 10:03:47;;;;;;;4.53;2.53;;;17.90;59.80;;;;;;4979220;28;20549;-77
2023/10/19 10:06:16;;;;;;;2.70;2.50;;;17.90;59.80;;;;;;4959989;28;20469;-78
2023/10/19 10:08:44;;;;;;;3.00;2.80;;;17.90;59.70;;;;;;4977085;28;20517;-78
2023/10/19 10:11:26;;;;;;;3.70;2.40;;;18.00;59.90;;;;;;4983347;28;20493;-78
2023/10/19 10:13:55;;;;;;;2.47;2.30;;;18.00;59.80;;;;;;4982741;28;20450;-78
2023/10/19 10:16:24;;;;;;;5.33;2.93;;;17.90;59.90;;;;;;4968460;28;20434;-78
2023/10/19 10:18:57;;;;;;;2.73;2.60;;;18.00;60.00;;;;;;4976839;28;20441;-78
2023/10/19 10:21:25;;;;;;;2.97;2.70;;;18.00;59.80;;;;;;4961737;28;20465;-78
2023/10/19 10:23:54;;;;;;;5.80;2.70;;;18.00;59.90;;;;;;4967812;28;20443;-78
2023/10/19 10:26:25;;;;;;;3.27;2.50;;;18.00;59.90;;;;;;4959519;28;20561;-78
2023/10/19 10:29:09;;;;;;;2.80;2.60;;;18.10;59.90;;;;;;4973748;28;20454;-78
2023/10/19 10:31:42;;;;;;;5.43;2.50;;;18.10;60.00;;;;;;4961096;28;20457;-78
2023/10/19 10:34:10;;;;;;;2.50;2.40;;;18.10;59.80;;;;;;4967682;28;20439;-78
2023/10/19 10:37:00;;;;;;;2.50;2.40;;;18.10;59.80;;;;;;4967909;28;20993;-78
2023/10/19 10:39:28;;;;;;;3.07;2.30;;;18.10;59.80;;;;;;4965084;28;20435;-78
2023/10/19 10:41:58;;;;;;;2.50;2.30;;;18.20;59.80;;;;;;4973178;28;20537;-78
2023/10/19 10:44:39;;;;;;;5.03;2.80;;;18.20;59.90;;;;;;4976894;28;20446;-78
2023/10/19 10:47:09;;;;;;;4.50;2.60;;;18.20;59.90;;;;;;4967732;28;20550;-78
2023/10/19 10:49:50;;;;;;;2.40;2.30;;;18.20;60.00;;;;;;4969815;28;20447;-78
2023/10/19 10:52:26;;;;;;;2.63;2.50;;;18.20;60.00;;;;;;4973909;28;20426;-78
2023/10/19 10:54:55;;;;;;;4.23;2.33;;;18.20;59.90;;;;;;4967200;28;20433;-78
2023/10/19 10:57:25;;;;;;;2.70;2.50;;;18.20;60.00;;;;;;4964683;28;20475;-78
2023/10/19 11:00:07;;;;;;;2.80;2.60;;;18.20;60.10;;;;;;4974908;28;20462;-76
2023/10/19 11:02:36;;;;;;;2.70;2.53;;;18.20;60.00;;;;;;4954899;28;20439;-76
2023/10/19 11:05:04;;;;;;;2.90;2.53;;;18.20;60.20;;;;;;4972903;28;20477;-76
2023/10/19 11:07:32;;;;;;;2.70;2.40;;;18.20;60.70;;;;;;4968066;28;20443;-75
2023/10/19 11:10:01;;;;;;;2.60;2.40;;;18.20;60.00;;;;;;4969794;28;20478;-75
2023/10/19 11:12:30;;;;;;;3.13;2.83;;;18.20;60.00;;;;;;4975148;28;20505;-78
2023/10/19 11:14:59;;;;;;;12.97;2.40;;;18.30;60.10;;;;;;4980936;28;20499;-78
2023/10/19 11:17:30;;;;;;;4.43;2.60;;;18.30;60.00;;;;;;4966019;28;20435;-77
2023/10/19 11:19:59;;;;;;;2.97;2.77;;;18.30;59.80;;;;;;4973841;28;20549;-77
2023/10/19 11:22:27;;;;;;;3.50;2.10;;;18.30;59.90;;;;;;4966101;28;20446;-77
2023/10/19 11:24:56;;;;;;;2.67;2.47;;;18.30;60.00;;;;;;4962801;28;20480;-77
2023/10/19 11:27:27;;;;;;;2.40;2.20;;;18.30;59.90;;;;;;4971265;28;20497;-77
2023/10/19 11:29:57;;;;;;;2.70;2.60;;;18.30;59.90;;;;;;4973675;28;20976;-77
2023/10/19 11:32:25;;;;;;;2.73;2.50;;;18.40;60.10;;;;;;4973565;28;20434;-78
2023/10/19 11:34:55;;;;;;;3.50;2.20;;;18.40;60.00;;;;;;4973848;28;20438;-77
2023/10/19 11:37:24;;;;;;;2.20;2.10;;;18.40;59.90;;;;;;4973896;28;20434;-77
2023/10/19 11:39:52;;;;;;;2.83;2.57;;;18.40;60.70;;;;;;4973850;28;20529;-77
2023/10/19 11:42:20;;;;;;;2.57;2.37;;;18.40;60.00;;;;;;4971626;28;20477;-77
2023/10/19 11:44:48;;;;;;;2.33;2.13;;;18.30;59.90;;;;;;4970454;28;20489;-77
2023/10/19 11:47:19;;;;;;;2.20;1.90;;;18.40;60.10;;;;;;4973547;28;20509;-77
2023/10/19 11:49:47;;;;;;;2.47;2.27;;;18.40;60.00;;;;;;4973525;28;20896;-77
2023/10/19 11:52:15;;;;;;;2.40;2.30;;;18.30;59.90;;;;;;4973626;28;20450;-77
2023/10/19 11:54:44;;;;;;;2.70;2.50;;;18.30;60.10;;;;;;4974265;28;20529;-77
2023/10/19 11:57:12;;;;;;;2.17;2.07;;;18.40;60.10;;;;;;4973944;28;20461;-77
2023/10/19 11:59:40;;;;;;;4.07;2.27;;;18.30;60.00;;;;;;4974143;28;20465;-77
2023/10/19 12:02:09;;;;;;;2.63;2.20;;;18.30;60.10;;;;;;4975480;28;20548;-76
2023/10/19 12:04:40;;;;;;;3.53;2.43;;;18.30;60.10;;;;;;4978288;28;20541;-76
2023/10/19 12:07:13;;;;;;;2.67;2.57;;;18.30;60.20;;;;;;4968821;28;20504;-76
2023/10/19 12:09:41;;;;;;;2.47;2.37;;;18.30;60.20;;;;;;4977252;28;20436;-76
2023/10/19 12:12:09;;;;;;;2.93;2.70;;;18.30;60.20;;;;;;4980372;28;20489;-76
2023/10/19 12:14:38;;;;;;;2.40;2.30;;;18.30;60.10;;;;;;4973235;28;20478;-76
2023/10/19 12:17:07;;;;;;;3.00;2.73;;;18.40;60.30;;;;;;4972848;28;20489;-76
2023/10/19 12:19:36;;;;;;;2.40;2.30;;;18.40;60.30;;;;;;4973436;28;20450;-76
2023/10/19 12:22:08;;;;;;;2.90;2.70;;;18.40;60.20;;;;;;4971311;28;20446;-75
2023/10/19 12:24:36;;;;;;;2.80;2.60;;;18.40;60.10;;;;;;4972925;28;20477;-76
2023/10/19 12:27:04;;;;;;;2.50;2.40;;;18.40;60.80;;;;;;4972678;28;20533;-75
2023/10/19 12:29:32;;;;;;;2.47;2.27;;;18.40;60.30;;;;;;4972981;28;20465;-75
2023/10/19 12:32:00;;;;;;;2.50;2.40;;;18.40;60.10;;;;;;4972889;28;20500;-76
2023/10/19 12:34:29;;;;;;;2.87;2.67;;;18.40;60.40;;;;;;4973253;28;20446;-75
2023/10/19 12:36:58;;;;;;;2.93;2.27;;;18.40;60.20;;;;;;4973042;28;20438;-76
2023/10/19 12:39:42;;;;;;;2.83;2.63;;;18.40;60.30;;;;;;4972798;28;20434;-75
2023/10/19 12:42:10;;;;;;;3.53;2.67;;;18.40;60.30;;;;;;4972556;28;20462;-75
2023/10/19 12:44:40;;;;;;;3.00;2.70;;;18.40;60.20;;;;;;4970007;28;20537;-76
2023/10/19 12:47:13;;;;;;;2.53;2.43;;;18.40;60.20;;;;;;4978773;28;20478;-75
2023/10/19 12:49:42;;;;;;;2.80;2.60;;;18.40;60.40;;;;;;4986856;28;20438;-75
2023/10/19 12:52:10;;;;;;;2.80;2.60;;;18.40;60.20;;;;;;4985465;28;20484;-77
2023/10/19 12:54:43;;;;;;;2.70;2.47;;;18.40;60.40;;;;;;4985399;28;20450;-76
2023/10/19 12:57:12;;;;;;;2.97;2.77;;;18.40;60.40;;;;;;4981192;28;20462;-75
2023/10/19 12:59:43;;;;;;;2.63;2.43;;;18.40;60.40;;;;;;4978540;28;20470;-77
2023/10/19 13:02:14;;;;;;;6.60;2.87;;;18.40;60.30;;;;;;4971676;28;20461;-76
2023/10/19 13:04:46;;;;;;;2.70;2.50;;;18.40;60.10;;;;;;4977812;28;20434;-76
2023/10/19 13:07:14;;;;;;;3.53;2.27;;;18.40;60.90;;;;;;4970303;28;20486;-74